createdAt,value
2022-08-23T00:00:34.369Z,18.62
2022-08-23T00:03:21.983Z,14.07
2022-08-23T00:06:10.543Z,17.80
2022-08-23T00:08:59.066Z,17.37
2022-08-23T00:11:52.495Z,15.25
2022-08-23T00:14:41.967Z,15.83
2022-08-23T00:17:34.776Z,15.35
2022-08-23T00:20:20.863Z,16.97
2022-08-23T00:23:08.288Z,15.68
2022-08-23T00:25:55.303Z,14.33
2022-08-23T00:28:42.848Z,17.62
2022-08-23T00:31:31.306Z,15.65
2022-08-23T00:34:19.047Z,18.65
2022-08-23T00:37:07.958Z,19.07
2022-08-23T00:39:55.429Z,16.42
2022-08-23T00:43:25.447Z,17.87
2022-08-23T00:46:49.300Z,20.15
2022-08-23T00:49:38.527Z,16.02
2022-08-23T00:52:34.599Z,17.12
2022-08-23T00:55:22.384Z,16.55
2022-08-23T00:58:10.991Z,20.72
2022-08-23T01:01:01.305Z,18.92
2022-08-23T01:06:47.791Z,15.53
2022-08-23T01:09:34.927Z,16.02
2022-08-23T01:12:32.825Z,16.95
2022-08-23T01:18:08.769Z,16.50
2022-08-23T01:21:24.552Z,15.13
2022-08-23T01:24:19.198Z,16.77
2022-08-23T01:27:02.217Z,15.43
2022-08-23T01:29:49.574Z,18.62
2022-08-23T01:32:40.415Z,14.58
2022-08-23T01:35:36.863Z,20.77
2022-08-23T01:38:24.801Z,17.30
2022-08-23T01:41:12.160Z,16.82
2022-08-23T01:44:00.415Z,17.73
2022-08-23T01:46:48.624Z,16.25
2022-08-23T01:49:37.680Z,18.95
2022-08-23T01:52:25.463Z,16.75
2022-08-23T01:55:13.351Z,16.85
2022-08-23T01:58:02.807Z,15.28
2022-08-23T02:00:49.897Z,19.07
2022-08-23T02:03:38.080Z,16.62
2022-08-23T02:06:26.048Z,16.82
2022-08-23T02:09:17.194Z,14.35
2022-08-23T02:12:04.121Z,15.65
2022-08-23T02:14:51.399Z,15.00
2022-08-23T02:17:38.864Z,17.02
2022-08-23T02:20:25.880Z,17.82
2022-08-23T02:23:14.032Z,19.90
2022-08-23T02:26:01.447Z,20.50
2022-08-23T02:28:54.088Z,14.05
2022-08-23T02:31:44.455Z,22.32
2022-08-23T02:34:32.160Z,16.55
2022-08-23T02:37:19.713Z,15.65
2022-08-23T02:40:08.650Z,14.35
2022-08-23T02:42:56.399Z,14.53
2022-08-23T02:45:44.064Z,18.40
2022-08-23T02:48:32.553Z,14.40
2022-08-23T02:51:22.096Z,14.73
2022-08-23T02:54:09.681Z,13.60
2022-08-23T02:56:57.287Z,15.40
2022-08-23T02:59:44.552Z,18.92
2022-08-23T03:02:32.130Z,19.77
2022-08-23T03:05:19.888Z,16.27
2022-08-23T03:08:08.406Z,13.90
2022-08-23T03:10:56.280Z,14.45
2022-08-23T03:13:45.935Z,15.80
2022-08-23T03:16:33.427Z,19.75
2022-08-23T03:19:21.735Z,14.87
2022-08-23T03:22:09.544Z,15.28
2022-08-23T03:24:57.441Z,14.40
2022-08-23T03:27:45.550Z,16.87
2022-08-23T03:30:33.939Z,16.93
2022-08-23T03:33:21.633Z,20.25
2022-08-23T03:36:10.679Z,17.65
2022-08-23T03:38:57.937Z,17.42
2022-08-23T03:41:45.402Z,20.85
2022-08-23T03:44:33.240Z,17.92
2022-08-23T03:47:21.040Z,14.15
2022-08-23T03:54:00.152Z,16.60
2022-08-23T03:57:03.198Z,15.23
2022-08-23T03:59:50.663Z,15.60
2022-08-23T04:02:38.415Z,13.68
2022-08-23T04:05:26.221Z,15.43
2022-08-23T04:08:14.156Z,10.28
2022-08-23T04:11:02.354Z,10.68
2022-08-23T04:13:49.756Z,11.28
2022-08-23T04:16:40.504Z,11.30
2022-08-23T04:19:28.104Z,8.93
2022-08-23T04:22:19.260Z,9.77
2022-08-23T04:25:16.289Z,10.65
2022-08-23T04:27:56.187Z,12.20
2022-08-23T04:30:45.473Z,12.40
2022-08-23T04:33:35.751Z,15.93
2022-08-23T04:39:12.409Z,11.75
2022-08-23T04:42:17.592Z,16.70
2022-08-23T04:45:05.607Z,11.60
2022-08-23T04:47:53.537Z,9.98
2022-08-23T04:50:42.713Z,10.38
2022-08-23T04:53:30.617Z,9.58
2022-08-23T04:56:17.696Z,11.85
2022-08-23T04:59:05.194Z,12.03
2022-08-23T05:01:53.511Z,11.38
2022-08-23T05:04:41.460Z,10.13
2022-08-23T05:07:41.833Z,11.90
2022-08-23T05:10:18.088Z,11.20
2022-08-23T05:13:05.529Z,13.72
2022-08-23T05:15:53.241Z,13.55
2022-08-23T05:18:40.865Z,12.63
2022-08-23T05:21:28.656Z,14.45
2022-08-23T05:24:16.537Z,15.10
2022-08-23T05:27:03.848Z,12.40
2022-08-23T05:29:52.850Z,14.85
2022-08-23T05:32:40.745Z,15.30
2022-08-23T05:35:28.472Z,12.25
2022-08-23T05:38:20.509Z,13.18
2022-08-23T05:41:07.042Z,17.27
2022-08-23T05:43:54.744Z,23.90
2022-08-23T05:46:43.508Z,15.10
2022-08-23T05:49:31.242Z,13.62
2022-08-23T05:52:18.674Z,12.10
2022-08-23T05:55:07.504Z,13.40
2022-08-23T05:57:54.622Z,14.23
2022-08-23T06:00:43.431Z,14.75
2022-08-23T06:03:31.096Z,14.75
2022-08-23T06:06:19.224Z,11.90
2022-08-23T06:09:09.760Z,15.25
2022-08-23T06:11:58.920Z,13.88
2022-08-23T06:14:46.042Z,13.48
2022-08-23T06:17:33.632Z,12.98
2022-08-23T06:20:21.349Z,17.00
2022-08-23T06:23:09.377Z,15.10
2022-08-23T06:25:58.881Z,15.60
2022-08-23T06:28:51.657Z,14.20
2022-08-23T06:31:49.177Z,16.30
2022-08-23T06:34:38.704Z,13.03
2022-08-23T06:37:26.025Z,14.33
2022-08-23T06:40:17.903Z,14.07
2022-08-23T06:43:05.737Z,14.05
2022-08-23T06:45:58.277Z,11.70
2022-08-23T06:48:44.616Z,18.70
2022-08-23T06:51:41.515Z,16.02
2022-08-23T06:54:31.982Z,13.83
2022-08-23T06:57:20.694Z,11.35
2022-08-23T07:00:11.355Z,13.48
2022-08-23T07:02:58.765Z,11.43
2022-08-23T07:05:46.297Z,12.53
2022-08-23T07:08:33.585Z,12.07
2022-08-23T07:11:22.193Z,12.03
2022-08-23T07:14:12.281Z,11.68
2022-08-23T07:17:01.520Z,10.40
2022-08-23T07:19:49.026Z,9.35
2022-08-23T07:22:36.896Z,11.10
2022-08-23T07:25:24.680Z,11.25
2022-08-23T07:28:12.520Z,12.28
2022-08-23T07:31:18.648Z,9.53
2022-08-23T07:34:07.308Z,12.05
2022-08-23T07:36:55.305Z,11.00
2022-08-23T07:39:42.863Z,8.78
2022-08-23T07:42:30.178Z,10.28
2022-08-23T07:45:19.009Z,10.88
2022-08-23T07:48:08.302Z,7.60
2022-08-23T07:51:01.228Z,9.78
2022-08-23T07:53:48.479Z,9.28
2022-08-23T07:56:36.644Z,11.73
2022-08-23T07:59:24.072Z,9.78
2022-08-23T08:02:11.276Z,11.28
2022-08-23T08:04:58.932Z,8.43
2022-08-23T08:07:46.131Z,10.58
2022-08-23T08:10:35.729Z,6.30
2022-08-23T08:13:23.049Z,7.75
2022-08-23T08:16:14.172Z,7.00
2022-08-23T08:19:03.551Z,9.97
2022-08-23T08:21:51.339Z,8.85
2022-08-23T08:24:39.122Z,8.43
2022-08-23T08:27:26.313Z,8.05
2022-08-23T08:30:13.792Z,7.15
2022-08-23T08:33:01.770Z,5.83
2022-08-23T08:35:57.553Z,7.20
2022-08-23T08:38:48.041Z,6.30
2022-08-23T08:41:35.553Z,6.58
2022-08-23T08:44:34.751Z,7.97
2022-08-23T08:47:25.351Z,6.87
2022-08-23T08:50:38.993Z,7.33
2022-08-23T08:56:32.300Z,7.12
2022-08-23T08:59:22.064Z,4.58
2022-08-23T09:02:20.129Z,10.15
2022-08-23T09:05:02.888Z,6.10
2022-08-23T09:08:26.671Z,6.58
2022-08-23T09:11:29.072Z,5.12
2022-08-23T09:14:34.662Z,7.55
2022-08-23T09:17:44.160Z,8.70
2022-08-23T09:20:33.340Z,7.58
2022-08-23T09:23:32.498Z,4.77
2022-08-23T09:26:25.423Z,6.55
2022-08-23T09:29:21.577Z,7.75
2022-08-23T09:32:29.936Z,6.37
2022-08-23T09:35:27.264Z,7.40
2022-08-23T09:38:23.272Z,10.08
2022-08-23T09:41:20.505Z,4.62
2022-08-23T09:44:13.256Z,7.20
2022-08-23T09:47:15.759Z,7.65
2022-08-23T09:50:12.169Z,8.25
2022-08-23T09:53:04.275Z,8.00
2022-08-23T09:55:53.402Z,6.30
2022-08-23T09:58:47.160Z,5.78
2022-08-23T10:01:39.077Z,10.75
2022-08-23T10:04:28.259Z,7.55
2022-08-23T10:07:35.608Z,6.75
2022-08-23T10:10:26.254Z,8.20
2022-08-23T10:13:14.856Z,7.25
2022-08-23T10:16:05.049Z,10.00
2022-08-23T10:19:07.682Z,7.15
2022-08-23T10:24:49.808Z,8.43
2022-08-23T10:28:18.489Z,5.40
2022-08-23T10:31:28.496Z,5.85
2022-08-23T10:34:24.431Z,4.80
2022-08-23T10:37:34.555Z,8.98
2022-08-23T10:40:35.028Z,7.33
2022-08-23T10:43:34.362Z,12.82
2022-08-23T10:46:23.990Z,7.50
2022-08-23T10:49:12.952Z,9.98
2022-08-23T10:52:01.616Z,8.23
2022-08-23T10:55:00.696Z,6.92
2022-08-23T10:57:49.450Z,9.90
2022-08-23T11:00:38.009Z,8.18
2022-08-23T11:03:40.016Z,10.32
2022-08-23T11:06:35.762Z,10.13
2022-08-23T11:09:26.560Z,12.60
2022-08-23T11:12:28.946Z,9.15
2022-08-23T11:15:22.112Z,8.90
2022-08-23T11:18:14.088Z,12.15
2022-08-23T11:21:10.224Z,10.48
2022-08-23T11:24:00.296Z,10.15
2022-08-23T11:26:51.640Z,10.30
2022-08-23T11:29:40.545Z,9.70
2022-08-23T11:32:35.714Z,11.90
2022-08-23T11:35:33.033Z,15.18
2022-08-23T11:38:40.712Z,11.40
2022-08-23T11:41:30.241Z,12.73
2022-08-23T11:44:20.695Z,11.33
2022-08-23T11:47:10.839Z,13.95
2022-08-23T11:53:08.619Z,12.58
2022-08-23T11:56:11.768Z,13.70
2022-08-23T11:59:21.607Z,12.78
2022-08-23T12:02:37.073Z,14.20
2022-08-23T12:05:31.854Z,15.45
2022-08-23T12:08:41.699Z,13.05
2022-08-23T12:11:48.256Z,17.45
2022-08-23T12:14:44.329Z,18.45
2022-08-23T12:17:40.409Z,13.20
2022-08-23T12:20:29.399Z,23.10
2022-08-23T12:23:19.663Z,19.20
2022-08-23T12:26:10.680Z,22.35
2022-08-23T12:29:07.488Z,19.67
2022-08-23T12:32:03.616Z,31.30
2022-08-23T12:37:57.209Z,26.15
2022-08-23T12:40:54.553Z,22.17
2022-08-23T12:43:43.296Z,25.85
2022-08-23T12:46:42.828Z,31.73
2022-08-23T12:49:33.552Z,19.95
2022-08-23T12:52:23.776Z,26.52
2022-08-23T12:55:19.798Z,28.30
2022-08-23T12:58:08.719Z,32.17
2022-08-23T13:00:59.040Z,21.65
2022-08-23T13:03:49.407Z,27.45
2022-08-23T13:06:40.015Z,25.35
2022-08-23T13:09:34.943Z,23.40
2022-08-23T13:12:22.152Z,27.52
2022-08-23T13:15:10.036Z,33.48
2022-08-23T13:18:02.319Z,24.65
2022-08-23T13:20:49.392Z,20.32
2022-08-23T13:23:36.928Z,23.15
2022-08-23T13:26:39.267Z,20.05
2022-08-23T13:29:26.960Z,19.95
2022-08-23T13:32:26.987Z,25.55
2022-08-23T13:38:20.822Z,26.82
2022-08-23T13:41:08.982Z,30.20
2022-08-23T13:43:56.495Z,32.67
2022-08-23T13:46:48.711Z,26.93
2022-08-23T13:49:37.584Z,29.37
2022-08-23T13:55:14.754Z,17.48
2022-08-23T13:58:02.177Z,15.48
2022-08-23T14:00:55.233Z,20.57
2022-08-23T14:03:38.927Z,25.80
2022-08-23T14:06:26.490Z,21.42
2022-08-23T14:09:15.486Z,17.87
2022-08-23T14:12:05.265Z,17.23
2022-08-23T14:14:54.415Z,25.65
2022-08-23T14:17:48.428Z,28.12
2022-08-23T14:20:51.651Z,21.62
2022-08-23T14:23:25.575Z,23.07
2022-08-23T14:26:15.512Z,16.42
2022-08-23T14:29:02.991Z,19.40
2022-08-23T14:31:50.952Z,16.17
2022-08-23T14:34:38.456Z,17.60
2022-08-23T14:40:15.682Z,18.48
2022-08-23T14:43:04.086Z,16.95
2022-08-23T14:45:53.203Z,23.10
2022-08-23T14:48:40.608Z,24.18
2022-08-23T14:51:32.360Z,20.20
2022-08-23T14:54:25.049Z,22.30
2022-08-23T14:57:12.992Z,19.07
2022-08-23T15:00:00.877Z,27.77
2022-08-23T15:02:50.417Z,17.50
2022-08-23T15:06:01.173Z,18.48
2022-08-23T15:08:49.808Z,21.85
2022-08-23T15:14:27.281Z,12.78
2022-08-23T15:17:14.583Z,15.95
2022-08-23T15:20:02.074Z,15.18
2022-08-23T15:22:55.807Z,12.85
2022-08-23T15:25:40.656Z,17.15
2022-08-23T15:28:28.259Z,16.25
2022-08-23T15:31:17.329Z,14.05
2022-08-23T15:34:05.472Z,16.42
2022-08-23T15:36:54.442Z,20.23
2022-08-23T15:39:43.342Z,23.05
2022-08-23T15:42:31.215Z,20.88
2022-08-23T15:45:19.032Z,19.82
2022-08-23T15:48:09.312Z,14.18
2022-08-23T15:50:58.270Z,15.50
2022-08-23T15:53:46.552Z,15.53
2022-08-23T15:56:36.833Z,21.87
2022-08-23T15:59:24.208Z,19.92
2022-08-23T16:02:12.079Z,13.43
2022-08-23T16:04:59.831Z,20.15
2022-08-23T16:07:47.832Z,14.65
2022-08-23T16:10:35.674Z,20.75
2022-08-23T16:13:23.592Z,15.98
2022-08-23T16:16:18.665Z,19.20
2022-08-23T16:19:08.839Z,13.30
2022-08-23T16:21:57.119Z,18.42
2022-08-23T16:24:45.193Z,16.48
2022-08-23T16:27:32.912Z,19.98
2022-08-23T16:30:20.088Z,15.85
2022-08-23T16:33:07.658Z,16.48
2022-08-23T16:35:55.295Z,17.15
2022-08-23T16:38:42.800Z,21.60
2022-08-23T16:41:30.375Z,19.27
2022-08-23T16:44:18.520Z,22.05
2022-08-23T16:47:07.655Z,15.25
2022-08-23T16:49:57.520Z,17.87
2022-08-23T16:52:45.177Z,24.95
2022-08-23T16:55:33.154Z,13.90
2022-08-23T16:58:23.152Z,23.42
2022-08-23T17:01:22.944Z,16.17
2022-08-23T17:04:10.360Z,23.10
2022-08-23T17:06:58.775Z,21.93
2022-08-23T17:09:47.196Z,14.87
2022-08-23T17:12:36.928Z,13.32
2022-08-23T17:15:27.391Z,21.52
2022-08-23T17:18:15.111Z,18.80
2022-08-23T17:21:02.712Z,22.90
2022-08-23T17:23:50.312Z,19.52
2022-08-23T17:26:38.168Z,35.30
2022-08-23T17:29:25.672Z,32.17
2022-08-23T17:32:13.792Z,21.62
2022-08-23T17:35:03.833Z,20.50
2022-08-23T17:37:51.616Z,23.67
2022-08-23T17:40:42.648Z,21.37
2022-08-23T17:43:30.631Z,22.87
2022-08-23T17:46:20.343Z,28.07
2022-08-23T17:49:08.688Z,18.57
2022-08-23T17:51:57.711Z,28.23
2022-08-23T17:54:46.920Z,19.80
2022-08-23T17:57:34.519Z,22.32
2022-08-23T18:00:22.592Z,18.67
2022-08-23T18:03:10.435Z,16.87
2022-08-23T18:05:57.959Z,23.90
2022-08-23T18:08:46.476Z,22.65
2022-08-23T18:11:35.183Z,17.00
2022-08-23T18:14:24.816Z,24.40
2022-08-23T18:17:13.063Z,24.82
2022-08-23T18:20:02.695Z,22.80
2022-08-23T18:22:50.983Z,21.70
2022-08-23T18:25:40.048Z,19.52
2022-08-23T18:28:30.640Z,23.52
2022-08-23T18:31:21.000Z,26.17
2022-08-23T18:34:09.247Z,24.25
2022-08-23T18:36:59.809Z,25.85
2022-08-23T18:39:48.623Z,31.42
2022-08-23T18:42:37.825Z,31.82
2022-08-23T18:45:25.831Z,30.75
2022-08-23T18:48:13.423Z,31.45
2022-08-23T18:51:02.417Z,28.23
2022-08-23T18:53:51.535Z,24.35
2022-08-23T18:56:40.927Z,26.77
2022-08-23T18:59:30.072Z,25.10
2022-08-23T19:02:18.101Z,28.17
2022-08-23T19:05:08.054Z,28.80
2022-08-23T19:07:56.255Z,27.73
2022-08-23T19:10:49.639Z,23.83
2022-08-23T19:13:37.447Z,31.17
2022-08-23T19:16:37.170Z,23.02
2022-08-23T19:19:29.135Z,25.82
2022-08-23T19:22:18.280Z,26.80
2022-08-23T19:25:08.057Z,27.55
2022-08-23T19:27:59.463Z,21.93
2022-08-23T19:30:49.023Z,22.85
2022-08-23T19:33:38.726Z,27.40
2022-08-23T19:36:45.108Z,23.20
2022-08-23T19:39:17.272Z,22.82
2022-08-23T19:42:11.911Z,27.10
2022-08-23T19:45:00.447Z,18.90
2022-08-23T19:47:51.023Z,19.40
2022-08-23T19:50:41.488Z,17.85
2022-08-23T19:53:30.359Z,21.17
2022-08-23T19:56:21.400Z,21.87
2022-08-23T19:59:23.329Z,25.45
2022-08-23T20:02:15.830Z,19.37
2022-08-23T20:05:08.329Z,21.62
2022-08-23T20:07:59.112Z,20.05
2022-08-23T20:10:46.817Z,19.02
2022-08-23T20:13:37.720Z,15.45
2022-08-23T20:16:29.253Z,21.17
2022-08-23T20:19:18.782Z,13.78
2022-08-23T20:22:25.253Z,24.70
2022-08-23T20:25:12.922Z,16.07
2022-08-23T20:28:01.939Z,19.25
2022-08-23T20:30:50.114Z,18.98
2022-08-23T20:33:37.887Z,15.13
2022-08-23T20:36:28.538Z,22.52
2022-08-23T20:39:20.431Z,23.67
2022-08-23T20:42:09.240Z,21.27
2022-08-23T20:44:57.617Z,19.17
2022-08-23T20:47:45.880Z,17.95
2022-08-23T20:50:36.184Z,17.82
2022-08-23T20:53:24.929Z,21.37
2022-08-23T20:56:13.882Z,21.27
2022-08-23T20:59:01.433Z,18.82
2022-08-23T21:01:51.082Z,21.50
2022-08-23T21:04:40.324Z,22.30
2022-08-23T21:07:28.784Z,20.55
2022-08-23T21:10:16.760Z,19.10
2022-08-23T21:13:05.582Z,20.88
2022-08-23T21:15:54.130Z,18.32
2022-08-23T21:18:42.056Z,20.68
2022-08-23T21:21:29.767Z,16.20
2022-08-23T21:24:17.360Z,15.85
2022-08-23T21:27:09.713Z,15.98
2022-08-23T21:29:53.640Z,22.65
2022-08-23T21:32:41.281Z,20.68
2022-08-23T21:35:28.465Z,22.62
2022-08-23T21:38:16.354Z,16.57
2022-08-23T21:41:05.663Z,21.25
2022-08-23T21:43:53.616Z,24.72
2022-08-23T21:46:41.713Z,21.57
2022-08-23T21:49:29.588Z,17.65
2022-08-23T21:52:17.136Z,15.40
2022-08-23T21:55:04.888Z,20.50
2022-08-23T21:57:52.312Z,21.75
2022-08-23T22:00:41.361Z,24.20
2022-08-23T22:03:28.761Z,18.57
2022-08-23T22:06:18.896Z,20.55
2022-08-23T22:09:08.992Z,27.05
2022-08-23T22:11:57.577Z,19.82
2022-08-23T22:14:45.434Z,18.10
2022-08-23T22:17:32.714Z,22.13
2022-08-23T22:20:20.952Z,23.40
2022-08-23T22:23:08.481Z,20.40
2022-08-23T22:26:00.208Z,20.37
2022-08-23T22:28:48.370Z,23.10
2022-08-23T22:31:36.552Z,23.62
2022-08-23T22:34:24.520Z,19.40
2022-08-23T22:37:12.097Z,24.57
2022-08-23T22:40:00.347Z,27.00
2022-08-23T22:42:48.561Z,21.48
2022-08-23T22:45:36.424Z,26.42
2022-08-23T22:48:24.067Z,22.75
2022-08-23T22:51:20.096Z,21.17
2022-08-23T22:54:10.360Z,22.10
2022-08-23T22:56:58.536Z,21.23
2022-08-23T22:59:45.995Z,24.90
2022-08-23T23:02:33.041Z,20.65
2022-08-23T23:05:20.649Z,22.75
2022-08-23T23:08:26.137Z,17.70
2022-08-23T23:11:15.387Z,23.83
2022-08-23T23:14:03.350Z,23.65
2022-08-23T23:16:53.324Z,17.42
2022-08-23T23:19:58.585Z,21.37
2022-08-23T23:22:46.041Z,19.48
2022-08-23T23:25:35.696Z,22.95
2022-08-23T23:28:24.000Z,18.40
2022-08-23T23:31:11.382Z,20.52
2022-08-23T23:33:58.584Z,20.65
2022-08-23T23:36:46.025Z,21.80
2022-08-23T23:39:33.721Z,19.55
2022-08-23T23:42:21.290Z,16.32
2022-08-23T23:45:09.457Z,17.62
2022-08-23T23:47:57.223Z,18.20
2022-08-23T23:50:46.544Z,16.05
2022-08-23T23:53:34.433Z,17.87
2022-08-23T23:56:24.305Z,19.17
2022-08-23T23:59:11.600Z,22.93
